Time;durP1;ratioP1;P1;durP2;ratioP2;P2;SDS_P1;SDS_P2;PMS_P1;PMS_P2;Temp;Humidity;BMP_temperature;BMP_pressure;BME280_temperature;BME280_humidity;BME280_pressure;Samples;Min_cycle;Max_cycle;Signal;HPM_P1;HPM_P2
2021/06/13 00:01:22;;;;;;;3.83;3.50;;;;;;;29.88;54.48;100811.84;5085754;27;66365;-32
2021/06/13 00:03:54;;;;;;;4.35;3.10;;;;;;;29.92;55.16;100823.84;5085231;27;69787;-33
2021/06/13 00:06:25;;;;;;;3.60;3.30;;;;;;;29.97;54.60;100826.75;5081635;27;66250;-33
2021/06/13 00:08:57;;;;;;;3.37;3.07;;;;;;;29.94;54.68;100814.50;5084299;27;69060;-32
2021/06/13 00:11:38;;;;;;;3.28;2.97;;;;;;;30.01;54.93;100817.19;5088598;27;65778;-33
2021/06/13 00:14:25;;;;;;;4.82;3.17;;;;;;;30.05;55.75;100811.09;5087189;27;69279;-33
2021/06/13 00:16:56;;;;;;;3.40;3.10;;;;;;;30.13;55.91;100820.03;5084767;27;65751;-31
2021/06/13 00:19:33;;;;;;;15.40;4.43;;;;;;;30.12;56.96;100808.38;5088199;27;69625;-36
2021/06/13 00:22:04;;;;;;;9.03;4.40;;;;;;;30.24;57.35;100831.00;5089056;27;66242;-35
2021/06/13 00:24:38;;;;;;;8.73;4.93;;;;;;;30.27;57.49;100822.47;5085106;27;69178;-35
2021/06/13 00:27:10;;;;;;;7.88;4.97;;;;;;;30.36;57.83;100835.72;5087578;27;65948;-34
2021/06/13 00:29:41;;;;;;;3.80;3.45;;;;;;;30.41;58.00;100833.19;5087252;27;68673;-36
2021/06/13 00:32:14;;;;;;;7.25;4.43;;;;;;;30.47;57.81;100843.16;5083650;27;66558;-35
2021/06/13 00:34:46;;;;;;;6.78;4.20;;;;;;;30.54;58.82;100843.94;5081545;27;69347;-35
2021/06/13 00:37:17;;;;;;;7.57;3.80;;;;;;;30.55;58.67;100842.88;5087916;27;66285;-36
2021/06/13 00:40:08;;;;;;;7.07;3.90;;;;;;;30.65;59.06;100851.38;5059003;27;69225;-34
2021/06/13 00:43:00;;;;;;;7.15;3.60;;;;;;;30.65;58.49;100835.13;5090061;27;65308;-37
2021/06/13 00:45:32;;;;;;;10.43;4.10;;;;;;;30.72;58.68;100857.53;5079608;27;69353;-35
2021/06/13 00:48:04;;;;;;;12.05;4.20;;;;;;;30.77;58.03;100862.31;5084140;27;66233;-39
2021/06/13 00:50:49;;;;;;;7.07;4.20;;;;;;;30.80;59.51;100871.91;5091489;27;70113;-39
2021/06/13 00:53:29;;;;;;;4.60;4.13;;;;;;;30.59;59.52;100843.28;5082050;27;65485;-34
2021/06/13 00:56:10;;;;;;;10.68;4.20;;;;;;;30.82;58.36;100886.06;5085122;27;69286;-35
2021/06/13 00:58:42;;;;;;;3.83;3.35;;;;;;;30.80;58.29;100874.63;5054382;27;65873;-34
2021/06/13 01:01:13;;;;;;;9.90;3.80;;;;;;;30.87;57.81;100886.22;5082943;27;69085;-37
2021/06/13 01:03:47;;;;;;;16.63;4.22;;;;;;;30.89;58.38;100889.53;5088483;27;64984;-39
2021/06/13 01:06:32;;;;;;;6.45;3.97;;;;;;;30.91;58.87;100890.16;5089074;27;70061;-36
2021/06/13 01:09:11;;;;;;;10.85;4.38;;;;;;;30.93;58.48;100888.06;5081982;27;66287;-34
2021/06/13 01:11:54;;;;;;;3.95;3.40;;;;;;;30.93;57.90;100883.47;5078359;27;70962;-35
2021/06/13 01:14:32;;;;;;;;;;;;;;;30.79;58.90;100895.41;5088751;27;66039;-37
2021/06/13 01:17:10;;;;;;;5.65;3.65;;;;;;;30.99;58.09;100897.19;5093913;27;69461;-35
2021/06/13 01:20:09;;;;;;;4.53;3.28;;;;;;;30.75;59.25;100855.44;5088144;27;65355;-35
2021/06/13 01:23:02;;;;;;;6.22;3.90;;;;;;;31.00;59.22;100896.94;5075083;27;69716;-35
2021/06/13 01:26:19;;;;;;;11.77;3.88;;;;;;;30.45;59.99;100818.16;5083680;27;65246;-37
2021/06/13 01:28:54;;;;;;;6.70;3.30;;;;;;;31.01;59.13;100906.75;5084132;27;67906;-34
2021/06/13 01:31:51;;;;;;;7.22;3.78;;;;;;;30.94;60.15;100897.84;5090455;27;65390;-32
2021/06/13 01:34:35;;;;;;;9.52;4.03;;;;;;;31.03;59.75;100906.50;5077069;27;69281;-35
2021/06/13 01:37:14;;;;;;;7.13;3.60;;;;;;;31.04;60.38;100900.88;5071406;27;65483;-32
2021/06/13 01:39:51;;;;;;;6.07;4.05;;;;;;;31.02;59.99;100885.91;5088676;27;70315;-35
2021/06/13 01:42:24;;;;;;;9.23;3.90;;;;;;;31.10;60.55;100891.88;5075188;27;65541;-38
2021/06/13 01:45:17;;;;;;;6.78;4.35;;;;;;;31.14;60.61;100890.34;5087989;27;70025;-34
2021/06/13 01:47:51;;;;;;;5.40;3.67;;;;;;;31.16;60.61;100890.16;5086975;27;65930;-32
2021/06/13 01:50:27;;;;;;;7.68;3.45;;;;;;;31.21;60.37;100892.19;5079259;27;70333;-35
2021/06/13 01:53:03;;;;;;;9.68;4.13;;;;;;;31.23;60.58;100895.50;5087882;27;65290;-35
2021/06/13 01:55:52;;;;;;;8.35;3.85;;;;;;;31.15;61.49;100883.91;5080398;27;70581;-32
2021/06/13 01:58:27;;;;;;;4.30;3.33;;;;;;;31.22;60.48;100888.44;5070567;27;65695;-35
2021/06/13 02:01:02;;;;;;;8.52;3.03;;;;;;;31.14;60.82;100867.84;5083704;27;69044;-31
2021/06/13 02:03:38;;;;;;;7.95;4.18;;;;;;;31.02;60.48;100851.50;5079699;27;66091;-33
2021/06/13 02:06:31;;;;;;;5.28;3.70;;;;;;;31.27;61.30;100891.31;5082997;27;70130;-33
2021/06/13 02:09:06;;;;;;;3.60;3.30;;;;;;;31.26;60.69;100878.78;5099810;27;66217;-35
2021/06/13 02:11:45;;;;;;;15.82;3.80;;;;;;;31.24;61.20;100870.06;5086914;27;69231;-33
2021/06/13 02:14:24;;;;;;;14.95;4.03;;;;;;;31.29;60.97;100873.78;5086007;27;66029;-34
2021/06/13 02:17:02;;;;;;;6.10;3.50;;;;;;;31.30;60.63;100874.59;5075266;27;68942;-32
2021/06/13 02:23:35;;;;;;;4.72;2.92;;;;;;;31.21;58.87;100852.38;5044745;27;68664;-30
2021/06/13 02:26:09;;;;;;;3.72;3.17;;;;;;;31.32;59.09;100877.91;5084952;27;65336;-32
2021/06/13 02:29:18;;;;;;;5.50;3.10;;;;;;;31.26;59.93;100884.22;5083556;27;70336;-34
2021/06/13 02:32:01;;;;;;;5.38;3.10;;;;;;;31.34;59.33;100875.78;5081205;27;65903;-34
2021/06/13 02:34:43;;;;;;;6.93;2.95;;;;;;;31.34;59.85;100898.34;5079562;27;69872;-33
2021/06/13 02:37:38;;;;;;;5.45;3.40;;;;;;;31.34;59.54;100881.22;5084697;27;65227;-33
2021/06/13 02:40:17;;;;;;;10.35;3.22;;;;;;;31.35;59.72;100881.00;5079925;27;69852;-32
2021/06/13 02:42:52;;;;;;;12.93;3.28;;;;;;;31.40;60.52;100880.38;5081509;27;66021;-32
2021/06/13 02:45:27;;;;;;;5.57;3.22;;;;;;;31.40;60.34;100880.38;5088602;27;70068;-32
2021/06/13 02:48:00;;;;;;;14.02;3.30;;;;;;;31.47;59.82;100891.97;5088222;27;66690;-31
2021/06/13 02:50:33;;;;;;;3.92;3.10;;;;;;;31.50;59.98;100891.50;5083529;27;69892;-31
2021/06/13 02:53:11;;;;;;;9.20;3.20;;;;;;;31.51;59.63;100886.91;5097198;27;66427;-31
2021/06/13 02:55:46;;;;;;;3.60;2.75;;;;;;;31.54;59.77;100881.06;5085788;27;68866;-32
2021/06/13 02:58:27;;;;;;;6.15;3.25;;;;;;;31.56;59.64;100889.78;5083408;27;65477;-31
2021/06/13 03:01:00;;;;;;;6.25;3.25;;;;;;;31.55;59.60;100888.97;5085875;27;69228;-30
2021/06/13 03:03:34;;;;;;;4.25;3.40;;;;;;;31.56;59.66;100879.75;5087689;27;66303;-31
2021/06/13 03:06:26;;;;;;;8.02;3.55;;;;;;;31.29;59.59;100846.66;5090102;27;69999;-32
2021/06/13 03:09:26;;;;;;;5.55;3.08;;;;;;;31.56;60.20;100887.91;5082427;27;66638;-31
2021/06/13 03:12:04;;;;;;;7.15;3.53;;;;;;;31.57;59.96;100886.88;5080594;27;70023;-31
2021/06/13 03:14:43;;;;;;;3.60;3.30;;;;;;;31.61;59.46;100882.63;5085422;27;65854;-32
2021/06/13 03:17:16;;;;;;;3.88;3.53;;;;;;;31.57;59.63;100867.88;5072264;27;70002;-31
2021/06/13 03:19:50;;;;;;;7.38;4.05;;;;;;;31.39;59.80;100841.56;5086934;27;66323;-32
2021/06/13 03:22:24;;;;;;;5.07;3.92;;;;;;;31.65;59.59;100871.34;5084496;27;69389;-32
2021/06/13 03:24:59;;;;;;;7.47;3.28;;;;;;;31.66;59.99;100879.25;5069259;27;65486;-32
2021/06/13 03:27:34;;;;;;;11.35;4.30;;;;;;;31.68;59.79;100877.16;5086231;27;70049;-32
2021/06/13 03:30:25;;;;;;;4.72;3.85;;;;;;;31.68;59.79;100862.75;5085036;27;66358;-32
2021/06/13 03:33:17;;;;;;;4.00;3.60;;;;;;;31.69;60.01;100867.13;5087870;27;69907;-32
2021/06/13 03:35:52;;;;;;;4.00;3.30;;;;;;;31.70;60.03;100857.94;5083089;27;65609;-32
2021/06/13 03:38:25;;;;;;;5.05;3.22;;;;;;;31.69;59.58;100845.44;5089948;27;69223;-31
2021/06/13 03:40:58;;;;;;;13.00;3.58;;;;;;;31.76;60.02;100862.44;5092041;27;65449;-31
2021/06/13 03:43:31;;;;;;;8.75;3.25;;;;;;;31.73;59.29;100846.63;5085920;27;70669;-31
2021/06/13 03:46:11;;;;;;;;;;;;;;;31.59;59.76;100851.38;5086514;27;65934;-29
2021/06/13 03:49:32;;;;;;;;;;;;;;;31.63;59.78;100835.50;5077502;27;70164;-32
2021/06/13 03:51:59;;;;;;;9.55;3.40;;;;;;;31.82;59.42;100832.53;5087067;27;65477;-32
2021/06/13 03:55:02;;;;;;;7.88;3.70;;;;;;;31.62;59.67;100777.69;5083900;27;69680;-33
2021/06/13 03:58:16;;;;;;;;;;;;;;;;;;;;;
2021/06/13 04:01:51;;;;;;;4.50;3.30;;;;;;;31.95;59.68;100819.88;5080861;27;69771;-34
2021/06/13 04:04:24;;;;;;;6.22;3.33;;;;;;;31.98;58.83;100812.13;5074086;27;66050;-33
2021/06/13 04:07:27;;;;;;;5.65;3.55;;;;;;;31.93;59.67;100812.00;5074286;27;71058;-36
2021/06/13 04:09:58;;;;;;;3.85;3.50;;;;;;;31.98;59.74;100814.84;5088166;27;65939;-33
2021/06/13 04:15:52;;;;;;;5.82;3.75;;;;;;;32.03;59.40;100803.28;5079930;27;66954;-33
2021/06/13 04:18:40;;;;;;;10.45;3.53;;;;;;;32.02;59.08;100807.06;5067044;27;70386;-31
2021/06/13 04:21:28;;;;;;;8.82;2.67;;;;;;;31.92;57.26;100804.88;5082108;27;65336;-30
2021/06/13 04:24:10;;;;;;;7.53;3.67;;;;;;;31.79;56.45;100799.63;5079926;27;69102;-32
2021/06/13 04:27:14;;;;;;;9.52;4.22;;;;;;;31.58;56.50;100801.75;5093562;27;65570;-32
2021/06/13 04:29:46;;;;;;;15.25;3.72;;;;;;;31.43;55.45;100797.78;5081980;27;70603;-31
2021/06/13 04:32:36;;;;;;;;;;;;;;;31.10;56.47;100788.09;5083421;27;65678;-30
2021/06/13 04:35:07;;;;;;;5.97;3.03;;;;;;;31.12;57.03;100792.22;5086013;27;69763;-32
2021/06/13 04:37:53;;;;;;;3.05;2.58;;;;;;;31.01;56.74;100774.00;5083528;27;65775;-31
2021/06/13 04:40:59;;;;;;;4.18;3.03;;;;;;;30.94;55.74;100773.22;5085347;27;68817;-31
2021/06/13 04:43:31;;;;;;;5.53;2.70;;;;;;;30.81;54.84;100773.34;5079618;27;66949;-33
2021/06/13 04:46:09;;;;;;;6.38;3.00;;;;;;;30.71;55.30;100774.66;5085136;27;69827;-31
2021/06/13 04:48:42;;;;;;;4.40;2.53;;;;;;;30.65;54.95;100759.31;5082851;27;66738;-32
2021/06/13 04:51:38;;;;;;;3.30;2.95;;;;;;;30.58;55.11;100763.94;5082560;27;69200;-30
2021/06/13 04:55:06;;;;;;;6.00;2.60;;;;;;;30.42;54.70;100765.34;5090820;27;66003;-31
2021/06/13 04:58:03;;;;;;;20.80;3.42;;;;;;;30.45;54.86;100751.38;5085371;27;69142;-34
2021/06/13 05:00:37;;;;;;;11.32;3.25;;;;;;;30.56;53.71;100763.31;5084399;27;66633;-33
2021/06/13 05:03:21;;;;;;;11.25;3.28;;;;;;;30.48;52.40;100747.38;5072163;27;70133;-34
2021/06/13 05:06:06;;;;;;;4.28;2.50;;;;;;;30.51;50.98;100736.13;5082184;27;66793;-36
2021/06/13 05:09:23;;;;;;;8.07;2.80;;;;;;;30.57;49.72;100739.81;5083390;27;68982;-38
2021/06/13 05:12:02;;;;;;;5.85;3.30;;;;;;;30.54;50.17;100722.13;5077803;27;65610;-34
2021/06/13 05:14:42;;;;;;;;;;;;;;;30.37;48.36;100732.69;5083844;27;69606;-35
2021/06/13 05:17:17;;;;;;;5.47;2.75;;;;;;;30.54;49.23;100730.25;5055413;27;65838;-32
2021/06/13 05:19:48;;;;;;;8.38;3.25;;;;;;;30.55;48.97;100721.06;5082667;27;69985;-31
2021/06/13 05:22:58;;;;;;;5.80;3.13;;;;;;;30.46;47.04;100722.41;5080787;27;65581;-32
2021/06/13 05:25:33;;;;;;;3.88;3.55;;;;;;;30.12;47.61;100646.06;5082050;27;69953;-30
2021/06/13 05:28:08;;;;;;;3.28;2.97;;;;;;;30.54;47.19;100719.44;5077186;27;65456;-31
2021/06/13 05:30:59;;;;;;;4.70;3.10;;;;;;;30.53;46.67;100706.91;5081197;27;70093;-34
2021/06/13 05:33:53;;;;;;;3.50;3.03;;;;;;;30.50;46.29;100707.38;5072409;27;65444;-31
2021/06/13 05:36:41;;;;;;;4.28;3.03;;;;;;;30.48;46.56;100698.66;5081282;27;70210;-32
2021/06/13 05:40:03;;;;;;;;;;;;;;;;;;;;;
2021/06/13 05:43:06;;;;;;;5.53;3.30;;;;;;;30.37;44.64;100696.66;5082387;27;68984;-34
2021/06/13 05:45:52;;;;;;;4.85;4.45;;;;;;;30.43;45.15;100682.25;5079386;27;66000;-32
2021/06/13 05:48:46;;;;;;;6.65;5.22;;;;;;;30.29;44.15;100668.03;5079376;27;69589;-31
2021/06/13 05:51:19;;;;;;;4.38;3.97;;;;;;;30.39;45.00;100672.91;5081203;27;66389;-31
2021/06/13 05:56:56;;;;;;;4.57;4.20;;;;;;;30.35;43.94;100656.28;5075699;27;65225;-33
2021/06/13 05:59:30;;;;;;;5.68;4.50;;;;;;;30.33;43.79;100652.97;5081736;27;43439;-32
2021/06/13 06:02:05;;;;;;;5.38;4.90;;;;;;;30.28;43.61;100652.81;5080657;27;65671;-32
2021/06/13 06:05:14;;;;;;;6.43;4.90;;;;;;;30.30;43.36;100652.59;5088058;27;69924;-31
2021/06/13 06:07:51;;;;;;;7.95;4.60;;;;;;;30.31;42.62;100648.84;5083714;27;65428;-31
2021/06/13 06:11:13;;;;;;;10.50;5.10;;;;;;;30.31;44.44;100638.00;5084171;27;69841;-31
2021/06/13 06:13:46;;;;;;;5.93;5.15;;;;;;;30.33;44.20;100635.91;5085233;27;66212;-32
2021/06/13 06:16:18;;;;;;;6.97;4.97;;;;;;;30.37;43.19;100629.00;5082354;27;70188;-32
2021/06/13 06:19:03;;;;;;;5.95;5.25;;;;;;;30.37;42.77;100620.88;5089421;27;66123;-32
2021/06/13 06:22:11;;;;;;;6.15;5.57;;;;;;;30.37;42.96;100629.00;5083755;27;69942;-32
2021/06/13 06:24:44;;;;;;;5.88;5.45;;;;;;;30.38;43.01;100620.66;5083479;27;65303;-32
2021/06/13 06:27:21;;;;;;;8.85;6.43;;;;;;;30.45;42.74;100634.13;5083680;27;70816;-32
2021/06/13 06:30:07;;;;;;;5.13;4.75;;;;;;;30.44;42.60;100640.59;5085076;27;66889;-33
2021/06/13 06:32:41;;;;;;;5.30;5.00;;;;;;;30.43;42.03;100623.53;5092676;27;69711;-31
2021/06/13 06:35:24;;;;;;;8.40;5.43;;;;;;;30.19;41.58;100579.19;5086610;27;65239;-35
2021/06/13 06:38:20;;;;;;;8.57;5.30;;;;;;;30.44;42.09;100627.88;5075121;27;69319;-31
2021/06/13 06:40:52;;;;;;;9.68;5.38;;;;;;;30.46;42.28;100631.22;5079280;27;66605;-34
2021/06/13 06:43:27;;;;;;;12.57;6.43;;;;;;;30.48;41.97;100628.28;5082628;27;69356;-33
2021/06/13 06:46:39;;;;;;;7.82;6.00;;;;;;;30.42;41.60;100623.75;5078699;27;66996;-36
2021/06/13 06:49:16;;;;;;;6.20;5.63;;;;;;;30.49;41.76;100629.94;5079303;27;69633;-32
2021/06/13 06:51:47;;;;;;;9.53;6.17;;;;;;;30.46;42.44;100614.16;5079596;27;65851;-33
2021/06/13 06:55:15;;;;;;;7.40;6.13;;;;;;;30.52;41.28;100607.84;5085960;27;70037;-32
2021/06/13 06:57:30;;;;;;;6.60;6.03;;;;;;;30.54;41.50;100605.75;5084664;27;66275;-31
2021/06/13 07:00:05;;;;;;;6.45;5.95;;;;;;;30.32;41.55;100569.34;5082752;27;70001;-34
2021/06/13 07:02:58;;;;;;;5.55;5.25;;;;;;;30.58;41.03;100606.94;5089634;27;66184;-31
2021/06/13 07:05:31;;;;;;;6.15;5.72;;;;;;;30.61;41.06;100601.06;5090324;27;70160;-34
2021/06/13 07:08:03;;;;;;;9.75;5.38;;;;;;;30.62;41.36;100602.72;5069187;27;66198;-34
2021/06/13 07:10:35;;;;;;;5.68;5.28;;;;;;;30.64;41.31;100589.78;5074760;27;69343;-37
2021/06/13 07:13:21;;;;;;;9.13;5.22;;;;;;;30.67;41.48;100580.38;5072478;27;65290;-33
2021/06/13 07:15:56;;;;;;;5.68;5.18;;;;;;;30.70;41.22;100578.06;5067920;27;70908;-34
2021/06/13 07:18:30;;;;;;;8.63;5.25;;;;;;;30.66;41.67;100566.03;5072956;27;66768;-33
2021/06/13 07:21:03;;;;;;;8.85;4.95;;;;;;;30.70;40.88;100567.25;5081872;27;69926;-33
2021/06/13 07:23:58;;;;;;;;;;;;;;;;;;;;;
2021/06/13 07:26:42;;;;;;;5.40;4.90;;;;;;;30.67;41.54;100570.41;5082740;27;69691;-34
2021/06/13 07:29:25;;;;;;;5.60;5.18;;;;;;;30.69;40.96;100570.16;5091702;27;66603;-36
2021/06/13 07:32:32;;;;;;;;;;;;;;;30.47;40.74;100567.91;5081065;27;70504;-31
2021/06/13 07:35:06;;;;;;;6.00;5.60;;;;;;;30.65;41.48;100555.44;5082647;27;65318;-33
2021/06/13 07:37:38;;;;;;;7.57;6.88;;;;;;;30.69;41.33;100546.63;5065870;27;68382;-34
2021/06/13 07:41:14;;;;;;;6.70;6.10;;;;;;;30.63;40.45;100550.22;5085361;27;66199;-36
2021/06/13 07:44:23;;;;;;;7.30;6.80;;;;;;;30.67;40.81;100551.44;5036971;27;68981;-35
2021/06/13 07:47:08;;;;;;;7.28;6.70;;;;;;;30.68;41.05;100547.69;5078860;27;66428;-33
2021/06/13 07:49:41;;;;;;;9.07;6.90;;;;;;;30.67;40.82;100550.59;5076055;27;70268;-35
2021/06/13 07:52:14;;;;;;;8.27;7.53;;;;;;;30.61;41.04;100551.50;5082101;27;66970;-31
2021/06/13 07:55:14;;;;;;;14.15;7.90;;;;;;;30.64;40.18;100567.28;5079802;27;69254;-32
2021/06/13 07:58:24;;;;;;;10.18;7.60;;;;;;;30.60;40.28;100561.50;5068402;27;66355;-32
2021/06/13 08:01:30;;;;;;;10.23;7.40;;;;;;;30.49;40.24;100554.16;5078800;27;69289;-33
2021/06/13 08:04:15;;;;;;;7.53;7.00;;;;;;;30.56;40.49;100560.31;5080717;27;66089;-32
2021/06/13 08:06:47;;;;;;;8.05;7.38;;;;;;;30.59;40.43;100549.03;5083045;27;69919;-32
2021/06/13 08:09:24;;;;;;;9.07;8.27;;;;;;;30.59;40.78;100543.63;5081266;27;65789;-33
2021/06/13 08:12:26;;;;;;;9.32;8.45;;;;;;;30.61;40.67;100546.91;5075849;27;69194;-30
2021/06/13 08:14:57;;;;;;;10.00;9.30;;;;;;;30.60;40.31;100542.56;5079425;27;65883;-32
2021/06/13 08:17:29;;;;;;;9.88;8.90;;;;;;;30.56;40.69;100533.22;5080972;27;70159;-32
2021/06/13 08:20:28;;;;;;;13.18;9.48;;;;;;;30.64;42.09;100532.94;5080971;27;65921;-32
2021/06/13 08:23:00;;;;;;;30.13;10.73;;;;;;;30.89;44.73;100542.84;5086765;27;69007;-36
2021/06/13 08:26:05;;;;;;;17.08;11.75;;;;;;;31.12;47.09;100542.13;5088070;27;65896;-35
2021/06/13 08:28:54;;;;;;;15.05;13.48;;;;;;;31.38;51.52;100532.81;5080722;27;69441;-35
2021/06/13 08:31:27;;;;;;;18.52;12.88;;;;;;;31.58;52.60;100529.78;5074812;27;66550;-36
2021/06/13 08:33:59;;;;;;;18.05;14.38;;;;;;;31.73;53.49;100526.63;5080397;27;68645;-37
2021/06/13 08:36:31;;;;;;;14.95;13.35;;;;;;;31.88;54.29;100523.47;5084783;27;65192;-34
2021/06/13 08:39:23;;;;;;;17.65;13.70;;;;;;;31.98;55.90;100534.56;5082018;27;70058;-35
2021/06/13 08:42:27;;;;;;;21.70;13.82;;;;;;;32.12;55.81;100535.16;5086599;27;65109;-35
2021/06/13 08:44:59;;;;;;;19.70;13.30;;;;;;;32.16;54.91;100525.47;5085429;27;69870;-35
2021/06/13 08:47:32;;;;;;;16.60;12.93;;;;;;;32.31;54.47;100531.22;5086743;27;65763;-35
2021/06/13 08:50:06;;;;;;;23.60;11.60;;;;;;;32.40;55.04;100529.81;5086299;27;69649;-34
2021/06/13 08:53:00;;;;;;;24.27;12.00;;;;;;;32.42;55.91;100514.09;5068327;27;66186;-36
2021/06/13 08:55:33;;;;;;;21.38;11.00;;;;;;;32.60;54.62;100526.72;5083242;27;69384;-35
2021/06/13 08:58:06;;;;;;;24.23;10.55;;;;;;;32.71;54.32;100525.03;5088734;27;66458;-37
2021/06/13 09:00:54;;;;;;;13.05;10.27;;;;;;;32.76;54.18;100525.13;5084685;27;69822;-36
2021/06/13 09:03:26;;;;;;;19.27;10.45;;;;;;;32.82;54.38;100524.19;5082641;27;65342;-38
2021/06/13 09:05:58;;;;;;;11.38;10.07;;;;;;;32.86;54.51;100519.91;5084997;27;69801;-39
2021/06/13 09:08:47;;;;;;;13.45;9.68;;;;;;;32.83;54.28;100516.84;5081331;27;66371;-35
2021/06/13 09:11:29;;;;;;;12.45;9.38;;;;;;;32.89;55.43;100524.84;5092235;27;69852;-32
2021/06/13 09:14:21;;;;;;;14.25;8.93;;;;;;;32.80;55.75;100523.59;5082055;27;66370;-32
2021/06/13 09:16:53;;;;;;;13.30;8.40;;;;;;;32.89;55.45;100530.28;5085110;27;69496;-32
2021/06/13 09:19:36;;;;;;;8.82;7.93;;;;;;;32.84;56.04;100527.44;5081592;27;65873;-35
2021/06/13 09:22:56;;;;;;;8.45;7.43;;;;;;;32.82;56.11;100529.63;5070423;27;71142;-33
2021/06/13 09:25:28;;;;;;;9.75;7.72;;;;;;;32.90;55.72;100531.94;5087786;27;66274;-33
2021/06/13 09:28:10;;;;;;;13.43;7.53;;;;;;;32.85;55.83;100523.69;5084451;27;70529;-31
2021/06/13 09:30:48;;;;;;;11.70;6.82;;;;;;;32.91;55.92;100533.59;5076031;27;65976;-33
2021/06/13 09:33:34;;;;;;;10.77;7.07;;;;;;;32.70;56.42;100498.94;5079129;27;69715;-33
2021/06/13 09:36:07;;;;;;;10.50;7.45;;;;;;;32.91;55.83;100535.47;5078092;27;65346;-35
2021/06/13 09:38:44;;;;;;;13.50;7.88;;;;;;;32.88;56.44;100536.78;5072853;27;70033;-32
2021/06/13 09:41:19;;;;;;;9.60;6.68;;;;;;;32.88;56.06;100544.13;5080802;27;67277;-32
2021/06/13 09:43:56;;;;;;;16.20;6.65;;;;;;;32.86;56.34;100535.38;5075707;27;69919;-32
2021/06/13 09:46:31;;;;;;;13.10;6.75;;;;;;;32.85;56.03;100540.00;5079010;27;65864;-34
2021/06/13 09:49:04;;;;;;;16.08;6.70;;;;;;;32.86;56.13;100541.63;5081279;27;69882;-33
2021/06/13 09:52:19;;;;;;;9.35;6.80;;;;;;;32.79;57.64;100545.53;5077074;27;65162;-33
2021/06/13 09:55:11;;;;;;;9.20;6.55;;;;;;;32.77;56.95;100542.25;5083224;27;70001;-33
2021/06/13 09:58:04;;;;;;;7.97;6.20;;;;;;;32.80;56.33;100550.75;5076139;27;66258;-34
2021/06/13 10:00:36;;;;;;;7.57;6.18;;;;;;;32.81;56.83;100544.25;5085364;27;69520;-34
2021/06/13 10:03:37;;;;;;;10.10;6.80;;;;;;;32.70;57.78;100558.69;5084644;27;64873;-32
2021/06/13 10:06:10;;;;;;;6.50;5.90;;;;;;;32.79;57.01;100562.69;5082387;27;69437;-33
2021/06/13 10:08:44;;;;;;;9.88;6.35;;;;;;;32.84;57.52;100570.91;5084888;27;65252;-33
2021/06/13 10:11:18;;;;;;;17.58;6.47;;;;;;;32.63;57.34;100542.53;5085698;27;70129;-33
2021/06/13 10:13:56;;;;;;;23.13;6.40;;;;;;;32.76;57.52;100563.16;5075601;27;65215;-32
2021/06/13 10:16:32;;;;;;;28.70;6.78;;;;;;;32.82;57.94;100583.94;5087825;27;68999;-37
2021/06/13 10:19:21;;;;;;;7.53;6.70;;;;;;;32.85;57.44;100598.94;5070587;27;66605;-33
2021/06/13 10:22:25;;;;;;;8.35;6.25;;;;;;;32.82;57.11;100589.38;5079964;27;70438;-37
2021/06/13 10:25:41;;;;;;;6.72;6.03;;;;;;;32.83;57.06;100607.31;5084166;27;64899;-34
2021/06/13 10:28:31;;;;;;;10.63;6.28;;;;;;;32.83;56.87;100620.06;5082353;27;69629;-32
2021/06/13 10:31:03;;;;;;;;;;;;;;;32.63;58.03;100628.63;5088538;27;67012;-33
2021/06/13 10:34:13;;;;;;;9.45;6.47;;;;;;;32.79;56.88;100622.44;5082157;27;70325;-32
2021/06/13 10:37:04;;;;;;;14.03;6.47;;;;;;;32.64;57.04;100608.53;5079604;27;65198;-32
2021/06/13 10:39:48;;;;;;;14.55;6.60;;;;;;;32.92;56.83;100649.31;5089697;27;69492;-32
2021/06/13 10:42:24;;;;;;;10.70;6.10;;;;;;;32.97;56.75;100645.09;5093928;27;65399;-31
2021/06/13 10:44:57;;;;;;;6.93;6.25;;;;;;;33.02;56.44;100645.22;5095231;27;69999;-32
2021/06/13 10:47:42;;;;;;;10.05;6.50;;;;;;;33.06;56.22;100649.09;5076447;27;66698;-31
2021/06/13 10:50:17;;;;;;;12.80;5.80;;;;;;;33.09;56.42;100659.47;5090113;27;70179;-32
2021/06/13 10:53:03;;;;;;;9.20;6.53;;;;;;;33.10;55.94;100663.88;5092660;27;65124;-32
2021/06/13 10:55:50;;;;;;;9.85;6.60;;;;;;;33.03;56.10;100644.16;5093188;27;69279;-31
2021/06/13 10:58:50;;;;;;;8.50;7.00;;;;;;;33.11;55.90;100662.78;5082530;27;66539;-31
2021/06/13 11:01:28;;;;;;;13.57;7.70;;;;;;;33.21;55.85;100652.13;5085555;27;69979;-32
2021/06/13 11:04:06;;;;;;;10.70;8.88;;;;;;;33.18;55.58;100660.75;5085716;27;65168;-33
2021/06/13 11:06:38;;;;;;;10.63;8.88;;;;;;;33.02;54.52;100664.25;5084183;27;69848;-34
2021/06/13 11:09:13;;;;;;;14.68;8.60;;;;;;;32.85;54.45;100666.84;5085394;27;65734;-35
2021/06/13 11:11:47;;;;;;;20.05;9.00;;;;;;;32.76;54.32;100669.06;5082988;27;70409;-33
2021/06/13 11:14:29;;;;;;;15.38;9.30;;;;;;;32.66;54.32;100677.03;5080830;27;65188;-31
2021/06/13 11:17:02;;;;;;;18.35;10.85;;;;;;;32.67;55.01;100675.94;5085541;27;70736;-31
2021/06/13 11:19:36;;;;;;;11.05;9.80;;;;;;;32.63;55.99;100672.88;5079822;27;64776;-33
2021/06/13 11:22:19;;;;;;;13.98;10.02;;;;;;;32.58;56.00;100671.94;5082439;27;69874;-33
2021/06/13 11:24:52;;;;;;;12.07;10.27;;;;;;;32.58;55.66;100680.09;5080537;27;65456;-36
2021/06/13 11:27:25;;;;;;;23.45;11.52;;;;;;;32.56;55.89;100687.66;5089214;27;70014;-33
2021/06/13 11:30:00;;;;;;;21.50;12.13;;;;;;;32.61;56.08;100687.75;5086682;27;65879;-32
2021/06/13 11:32:53;;;;;;;16.80;12.20;;;;;;;32.51;55.93;100691.06;5088675;27;70672;-34
2021/06/13 11:35:25;;;;;;;23.13;12.60;;;;;;;32.59;56.01;100692.59;5087315;27;66533;-38
2021/06/13 11:38:19;;;;;;;;;;;;;;;32.40;56.28;100689.13;5083707;27;70519;-33
2021/06/13 11:40:55;;;;;;;13.55;12.10;;;;;;;32.57;56.01;100694.72;5077797;27;66975;-34
2021/06/13 11:43:40;;;;;;;18.23;12.35;;;;;;;32.48;55.85;100692.38;5066181;27;69499;-32
2021/06/13 11:46:13;;;;;;;18.88;12.48;;;;;;;32.44;56.00;100696.59;5080815;27;64829;-33
2021/06/13 11:48:54;;;;;;;27.63;13.93;;;;;;;32.24;55.98;100679.81;5087665;27;70006;-33
2021/06/13 11:51:26;;;;;;;15.93;13.50;;;;;;;32.49;56.21;100729.31;5085954;27;65395;-32
2021/06/13 11:53:58;;;;;;;;;;;;;;;32.33;56.86;100740.84;5064944;27;69836;-31
2021/06/13 11:56:33;;;;;;;25.08;14.05;;;;;;;32.52;56.86;100736.19;5080548;27;65804;-33
2021/06/13 11:59:14;;;;;;;19.25;13.95;;;;;;;32.45;57.20;100741.66;5078925;27;69976;-33
2021/06/13 12:01:54;;;;;;;18.30;14.70;;;;;;;32.41;57.59;100745.09;5075933;27;66449;-31
2021/06/13 12:04:29;;;;;;;27.55;15.65;;;;;;;32.24;57.63;100713.22;5082705;27;70492;-35
2021/06/13 12:07:08;;;;;;;25.95;15.15;;;;;;;31.95;57.76;100682.34;5081450;27;66427;-33
2021/06/13 12:09:40;;;;;;;27.00;15.75;;;;;;;32.39;57.86;100750.75;5084263;27;69825;-32
2021/06/13 12:12:19;;;;;;;23.20;15.77;;;;;;;32.41;57.81;100756.78;5089199;27;65671;-34
2021/06/13 12:14:59;;;;;;;29.20;17.58;;;;;;;32.17;58.01;100733.38;5081406;27;70063;-31
2021/06/13 12:17:37;;;;;;;36.35;19.67;;;;;;;32.15;58.35;100730.06;5080396;27;65624;-32
2021/06/13 12:20:15;;;;;;;36.22;20.23;;;;;;;32.36;57.98;100748.50;5086542;27;69338;-32
2021/06/13 12:23:18;;;;;;;35.95;18.52;;;;;;;32.37;58.49;100760.19;5088912;27;65386;-32
2021/06/13 12:28:39;;;;;;;39.65;17.90;;;;;;;32.33;59.29;100757.13;5081791;27;65654;-34
2021/06/13 12:31:10;;;;;;;28.75;17.45;;;;;;;32.32;59.22;100758.19;5081870;27;68937;-34
2021/06/13 12:33:42;;;;;;;34.92;17.00;;;;;;;32.28;59.02;100759.69;5082267;27;65718;-34
2021/06/13 12:36:14;;;;;;;33.33;17.60;;;;;;;32.30;59.33;100759.47;5069324;27;70948;-35
2021/06/13 12:38:51;;;;;;;23.80;16.38;;;;;;;32.27;59.79;100768.91;5079599;27;65414;-33
2021/06/13 12:41:23;;;;;;;25.92;15.18;;;;;;;32.26;59.32;100764.53;5083811;27;69116;-34
2021/06/13 12:43:58;;;;;;;24.30;14.85;;;;;;;32.26;59.38;100770.81;5085002;27;66253;-37
2021/06/13 12:46:39;;;;;;;22.20;14.25;;;;;;;32.23;59.41;100771.28;5086689;27;69247;-37
2021/06/13 12:49:12;;;;;;;17.45;12.02;;;;;;;32.24;58.81;100778.34;5089456;27;66671;-34
2021/06/13 12:51:46;;;;;;;17.50;12.05;;;;;;;32.24;59.16;100782.97;5090524;27;69235;-34